Friday, January 19, 2018, 4:00 AM GMT
Back to Local

CXKT, Kentville , N. S.

Location: , , Canada Lat: 45.067
Local Time: 4:00 AM GMT ( 4:00 GMT) Lon: -64.483
Time Zone: GMT Elev: 160 ft

Show me the last for .
Show Coded

Time T Td Feel RH Dir Speed Gust Alt SLP Vis Weather Sky Remarks
2018-01-19 03:00 19 18 - 95 180° 2 - - 29.80 0 None
2018-01-19 02:00 19 18 - 95 180° 2 - - 29.80 0 None
2018-01-19 01:00 22 17 - 81 300° 2 - - 29.79 0 None
2018-01-19 00:00 24 19 15 82 330° 8 - - 29.78 0 None
2018-01-18 23:00 25 21 19 83 290° 5 - - 29.76 0 None
2018-01-18 22:00 28 21 21 75 270° 6 - - 29.74 0 None
2018-01-18 21:00 29 24 20 80 260° 9 - - 29.76 0 Peak wind: 19 mph (17 kts) from 280° at 17 min
2018-01-18 20:00 30 25 19 80 270° 9 17 - 29.75 0 None
2018-01-18 19:00 32 28 20 86 270° 8 17 - 29.75 0 None
2018-01-18 18:00 31 30 23 93 250° 9 - - 29.77 0 None
2018-01-18 17:00 33 33 29 99 260° 5 - - 29.77 0 None
2018-01-18 16:00 33 31 29 91 250° 5 - - 29.80 0 None
2018-01-18 15:00 31 31 28 99 230° 3 - - 29.83 0 None
2018-01-18 14:00 30 29 - 97 240° 2 - - 29.86 0 1-hr Precip Total: 0.01"
2018-01-18 13:00 28 28 25 97 240° 3 - - 29.85 0 None
2018-01-18 12:00 27 27 - 97 160° 2 - - 29.84 0 None
2018-01-18 11:00 28 28 23 98 260° 5 - - 29.85 0 None
2018-01-18 10:00 28 27 - 98 280° 1 - - 29.84 0 None
2018-01-18 09:00 28 28 - 98 280° 2 - - 29.84 0 1-hr Precip Total: 0.01"
2018-01-18 08:00 28 28 24 98 280° 3 - - 29.86 0 None
2018-01-18 07:00 29 28 24 98 270° 5 - - 29.86 0 None
2018-01-18 06:00 28 28 - 98 - Calm - - 29.85 0 1-hr Precip Total: 0.02"
2018-01-18 05:00 28 28 - 99 360° 1 - - 29.90 0 1-hr Precip Total: 0.03"

Support USWX by starting your Amazon purchase here.